Time;durP1;ratioP1;P1;durP2;ratioP2;P2;SDS_P1;SDS_P2;PMS_P1;PMS_P2;Temp;Humidity;BMP_temperature;BMP_pressure;BME280_temperature;BME280_humidity;BME280_pressure;Samples;Min_cycle;Max_cycle;Signal;HPM_P1;HPM_P2
2023/09/29 00:00:45;;;;;;;6.60;3.10;;;20.50;94.60;;;;;;5073167;28;20461;-57
2023/09/29 00:03:12;;;;;;;4.67;2.50;;;20.50;94.80;;;;;;5073070;28;20953;-57
2023/09/29 00:05:39;;;;;;;4.73;3.20;;;20.50;94.70;;;;;;5073359;28;20850;-57
2023/09/29 00:08:07;;;;;;;3.33;2.27;;;20.50;94.70;;;;;;5073374;28;20448;-57
2023/09/29 00:10:34;;;;;;;5.47;3.30;;;20.60;94.60;;;;;;5073210;28;20492;-57
2023/09/29 00:13:01;;;;;;;5.77;3.13;;;20.50;94.60;;;;;;5072876;28;20934;-57
2023/09/29 00:15:31;;;;;;;5.83;2.80;;;20.50;94.50;;;;;;5073244;28;20502;-57
2023/09/29 00:17:58;;;;;;;5.97;3.17;;;20.50;94.60;;;;;;5072917;28;20985;-57
2023/09/29 00:20:25;;;;;;;3.63;2.67;;;20.50;94.50;;;;;;5073192;28;20464;-57
2023/09/29 00:22:52;;;;;;;4.00;3.40;;;20.50;94.50;;;;;;5074332;28;20480;-57
2023/09/29 00:25:19;;;;;;;5.70;3.07;;;20.50;94.50;;;;;;5076936;28;20515;-57
2023/09/29 00:27:46;;;;;;;5.60;2.90;;;20.50;94.40;;;;;;5077431;28;20475;-57
2023/09/29 00:30:14;;;;;;;3.97;2.50;;;20.50;94.50;;;;;;5077151;28;20475;-57
2023/09/29 00:32:46;;;;;;;7.70;2.80;;;20.50;94.50;;;;;;5077142;28;20448;-57
2023/09/29 00:35:18;;;;;;;8.47;3.10;;;20.50;94.40;;;;;;5077194;28;20524;-57
2023/09/29 00:37:45;;;;;;;3.80;3.10;;;20.50;94.50;;;;;;5077112;28;20425;-57
2023/09/29 00:40:14;;;;;;;6.43;3.00;;;20.50;94.60;;;;;;5077002;28;20507;-57
2023/09/29 00:42:42;;;;;;;3.60;3.10;;;20.50;94.60;;;;;;5076687;28;20535;-57
2023/09/29 00:45:10;;;;;;;6.50;2.90;;;20.50;94.60;;;;;;5076813;28;20488;-57
2023/09/29 00:47:37;;;;;;;5.10;3.17;;;20.50;94.70;;;;;;5076960;28;20441;-57
2023/09/29 00:50:07;;;;;;;6.63;2.93;;;20.50;94.70;;;;;;5076891;28;20467;-57
2023/09/29 00:52:34;;;;;;;3.07;2.50;;;20.50;94.70;;;;;;5076833;28;20433;-57
2023/09/29 00:55:00;;;;;;;3.90;2.27;;;20.50;94.60;;;;;;5076864;28;20440;-57
2023/09/29 00:57:29;;;;;;;4.23;2.80;;;20.50;94.70;;;;;;5076722;28;20441;-57
2023/09/29 00:59:56;;;;;;;2.90;2.70;;;20.60;94.90;;;;;;5076868;28;20461;-57
2023/09/29 01:02:23;;;;;;;6.80;3.20;;;20.50;94.90;;;;;;5077013;28;20455;-56
2023/09/29 01:04:50;;;;;;;4.33;2.80;;;20.50;95.20;;;;;;5076624;28;20491;-56
2023/09/29 01:07:19;;;;;;;4.47;2.60;;;20.50;94.80;;;;;;5076660;28;20448;-57
2023/09/29 01:09:47;;;;;;;3.20;2.90;;;20.50;94.90;;;;;;5076431;28;20510;-57
2023/09/29 01:12:26;;;;;;;9.03;3.03;;;20.50;94.90;;;;;;5076434;28;20437;-57
2023/09/29 01:14:53;;;;;;;3.67;2.57;;;20.50;94.80;;;;;;5076344;28;20797;-56
2023/09/29 01:17:21;;;;;;;3.80;2.43;;;20.50;94.90;;;;;;5076319;28;20451;-57
2023/09/29 01:19:48;;;;;;;4.73;2.60;;;20.50;94.90;;;;;;5076308;28;20456;-57
2023/09/29 01:22:15;;;;;;;4.47;2.57;;;20.50;95.00;;;;;;5076250;28;20449;-57
2023/09/29 01:24:44;;;;;;;4.03;2.27;;;20.50;95.00;;;;;;5075849;28;20872;-57
2023/09/29 01:27:10;;;;;;;4.33;2.93;;;20.50;95.10;;;;;;5076201;28;20447;-57
2023/09/29 01:29:41;;;;;;;5.73;3.10;;;20.50;95.20;;;;;;5076029;28;20541;-57
2023/09/29 01:32:11;;;;;;;3.43;2.57;;;20.50;95.20;;;;;;5075701;28;20902;-57
2023/09/29 01:34:38;;;;;;;4.03;2.73;;;20.50;95.30;;;;;;5075640;28;20449;-57
2023/09/29 01:37:05;;;;;;;5.20;2.40;;;20.50;95.30;;;;;;5075758;28;20451;-57
2023/09/29 01:39:32;;;;;;;7.00;3.30;;;20.50;95.30;;;;;;5075950;28;20460;-57
2023/09/29 01:42:00;;;;;;;4.50;2.90;;;20.50;95.30;;;;;;5075595;28;20493;-57
2023/09/29 01:44:27;;;;;;;3.80;2.60;;;20.50;95.20;;;;;;5075677;28;20451;-57
2023/09/29 01:46:53;;;;;;;4.23;2.37;;;20.50;95.20;;;;;;5075837;28;20441;-57
2023/09/29 01:49:22;;;;;;;2.93;2.60;;;20.60;95.20;;;;;;5075826;28;20468;-57
2023/09/29 01:51:50;;;;;;;5.80;2.40;;;20.60;95.20;;;;;;5075776;28;20440;-57
2023/09/29 01:54:17;;;;;;;4.20;2.53;;;20.60;95.00;;;;;;5075655;28;20970;-57
2023/09/29 01:56:44;;;;;;;5.67;2.63;;;20.60;95.10;;;;;;5075753;28;20494;-57
2023/09/29 01:59:13;;;;;;;5.53;2.63;;;20.60;95.00;;;;;;5075242;28;20534;-57
2023/09/29 02:01:40;;;;;;;6.43;3.03;;;20.60;95.10;;;;;;5075555;28;20472;-57
2023/09/29 02:04:07;;;;;;;6.20;3.13;;;20.50;95.20;;;;;;5075211;28;20619;-57
2023/09/29 02:06:34;;;;;;;2.53;2.33;;;20.50;95.30;;;;;;5075450;28;20524;-57
2023/09/29 02:09:01;;;;;;;5.70;2.90;;;20.50;95.30;;;;;;5075387;28;20801;-57
2023/09/29 02:11:28;;;;;;;3.90;3.00;;;20.50;95.50;;;;;;5075091;28;20856;-57
2023/09/29 02:13:55;;;;;;;6.03;2.80;;;20.50;95.30;;;;;;5075198;28;20483;-57
2023/09/29 02:16:23;;;;;;;4.67;2.73;;;20.50;95.40;;;;;;5075370;28;20472;-57
2023/09/29 02:18:50;;;;;;;4.70;2.97;;;20.50;95.60;;;;;;5074865;28;20964;-57
2023/09/29 02:21:22;;;;;;;3.97;2.60;;;20.50;95.60;;;;;;5075169;28;20451;-57
2023/09/29 02:23:48;;;;;;;5.03;2.57;;;20.50;95.70;;;;;;5074995;28;20832;-57
2023/09/29 02:26:15;;;;;;;9.30;2.63;;;20.50;95.70;;;;;;5075062;28;20475;-57
2023/09/29 02:28:42;;;;;;;7.03;3.17;;;20.50;95.70;;;;;;5075118;28;20447;-57
2023/09/29 02:31:12;;;;;;;5.27;3.00;;;20.50;95.70;;;;;;5074892;28;20539;-56
2023/09/29 02:33:40;;;;;;;5.87;3.30;;;20.50;95.70;;;;;;5074975;28;20428;-57
2023/09/29 02:36:08;;;;;;;3.60;3.10;;;20.50;95.70;;;;;;5075019;28;20437;-56
2023/09/29 02:38:36;;;;;;;5.27;2.93;;;20.50;95.70;;;;;;5074800;28;20449;-56
2023/09/29 02:41:03;;;;;;;7.47;2.63;;;20.50;95.70;;;;;;5074731;28;20534;-57
2023/09/29 02:43:31;;;;;;;5.00;3.27;;;20.50;95.70;;;;;;5074684;28;20452;-57
2023/09/29 02:45:58;;;;;;;8.23;3.00;;;20.50;95.60;;;;;;5073746;28;20488;-57
2023/09/29 02:48:27;;;;;;;4.90;2.80;;;20.50;95.70;;;;;;5074656;28;20444;-57
2023/09/29 02:50:55;;;;;;;5.70;3.10;;;20.50;96.00;;;;;;5074587;28;20497;-57
2023/09/29 02:53:22;;;;;;;5.00;2.60;;;20.50;95.70;;;;;;5074454;28;20484;-57
2023/09/29 02:55:50;;;;;;;6.43;2.77;;;20.50;95.60;;;;;;5074246;28;20950;-57
2023/09/29 02:58:17;;;;;;;7.37;3.30;;;20.50;95.60;;;;;;5074532;28;20448;-57
2023/09/29 03:00:45;;;;;;;3.30;2.50;;;20.40;95.50;;;;;;5074324;28;20503;-57
2023/09/29 03:03:14;;;;;;;4.50;3.03;;;20.30;95.60;;;;;;5074887;28;20449;-57
2023/09/29 03:05:43;;;;;;;2.73;2.53;;;20.30;95.60;;;;;;5074176;28;20576;-57
2023/09/29 03:08:11;;;;;;;5.00;2.83;;;20.30;95.70;;;;;;5074317;28;20468;-57
2023/09/29 03:10:37;;;;;;;3.90;2.03;;;20.30;95.70;;;;;;5074232;28;20467;-57
2023/09/29 03:13:05;;;;;;;5.80;2.80;;;20.30;95.80;;;;;;5074021;28;20447;-57
2023/09/29 03:15:31;;;;;;;3.47;3.17;;;20.30;95.70;;;;;;5074144;28;20444;-57
2023/09/29 03:17:58;;;;;;;5.73;2.63;;;20.30;95.90;;;;;;5074928;28;20460;-57
2023/09/29 03:20:25;;;;;;;2.80;2.60;;;20.30;95.90;;;;;;5074009;28;20488;-57
2023/09/29 03:22:52;;;;;;;6.37;2.40;;;20.30;95.90;;;;;;5073551;28;20950;-57
2023/09/29 03:25:20;;;;;;;2.70;2.50;;;20.30;95.90;;;;;;5073616;28;20489;-57
2023/09/29 03:27:48;;;;;;;4.93;2.57;;;20.30;95.90;;;;;;5073958;28;20453;-57
2023/09/29 03:30:15;;;;;;;4.63;2.60;;;20.30;95.80;;;;;;5073429;28;20847;-57
2023/09/29 03:32:42;;;;;;;3.43;2.37;;;20.30;95.80;;;;;;5073718;28;20540;-57
2023/09/29 03:35:10;;;;;;;3.43;2.13;;;20.30;95.90;;;;;;5073748;28;20494;-57
2023/09/29 03:37:38;;;;;;;2.93;2.60;;;20.30;95.90;;;;;;5073463;28;20487;-57
2023/09/29 03:40:08;;;;;;;3.90;2.90;;;20.30;96.00;;;;;;5073268;28;20835;-56
2023/09/29 03:42:38;;;;;;;2.93;2.70;;;20.30;96.00;;;;;;5073397;28;20426;-57
2023/09/29 03:45:06;;;;;;;2.60;2.40;;;20.30;96.20;;;;;;5073124;28;20480;-56
2023/09/29 03:47:33;;;;;;;3.03;2.33;;;20.30;96.10;;;;;;5073289;28;20445;-57
2023/09/29 03:50:01;;;;;;;7.80;2.80;;;20.30;96.10;;;;;;5073557;28;20469;-57
2023/09/29 03:52:29;;;;;;;3.50;2.50;;;20.30;96.10;;;;;;5073506;28;20527;-57
2023/09/29 03:54:56;;;;;;;3.87;2.33;;;20.40;96.10;;;;;;5073496;28;20498;-57
2023/09/29 03:57:23;;;;;;;3.00;2.13;;;20.40;96.10;;;;;;5073348;28;20451;-57
2023/09/29 03:59:52;;;;;;;3.40;3.10;;;20.40;96.10;;;;;;5073306;28;20468;-57
2023/09/29 04:02:20;;;;;;;3.17;1.83;;;20.40;96.20;;;;;;5073485;28;20449;-57
2023/09/29 04:04:47;;;;;;;3.47;3.20;;;20.40;96.20;;;;;;5073383;28;20436;-57
2023/09/29 04:07:14;;;;;;;3.83;2.90;;;20.50;96.20;;;;;;5073282;28;20487;-57
2023/09/29 04:09:41;;;;;;;5.30;3.27;;;20.50;96.20;;;;;;5073308;28;20504;-57
2023/09/29 04:12:08;;;;;;;3.93;3.30;;;20.50;96.20;;;;;;5073304;28;20448;-57
2023/09/29 04:14:34;;;;;;;3.70;3.07;;;20.50;96.20;;;;;;5072863;28;20794;-57
2023/09/29 04:17:04;;;;;;;9.53;3.80;;;20.50;96.30;;;;;;5073240;28;20440;-57
2023/09/29 04:19:31;;;;;;;5.90;3.37;;;20.40;96.30;;;;;;5073472;28;20469;-57
2023/09/29 04:21:58;;;;;;;4.73;3.40;;;20.50;96.30;;;;;;5073294;28;20463;-57
2023/09/29 04:24:25;;;;;;;6.50;4.83;;;20.50;96.30;;;;;;5072923;28;20492;-57
2023/09/29 04:26:51;;;;;;;7.97;3.90;;;20.50;96.30;;;;;;5073242;28;20484;-57
2023/09/29 04:29:18;;;;;;;6.60;4.20;;;20.50;96.40;;;;;;5072864;28;20927;-56
2023/09/29 04:31:45;;;;;;;5.67;4.40;;;20.50;96.40;;;;;;5072771;28;20448;-56
2023/09/29 04:34:13;;;;;;;6.30;5.00;;;20.50;96.50;;;;;;5073161;28;20514;-56
2023/09/29 04:36:42;;;;;;;6.87;4.80;;;20.50;96.80;;;;;;5073101;28;20441;-56
2023/09/29 04:39:09;;;;;;;6.60;4.90;;;20.40;96.80;;;;;;5072990;28;20464;-56
2023/09/29 04:41:35;;;;;;;6.40;5.00;;;20.40;96.80;;;;;;5073051;28;20511;-56
2023/09/29 04:44:04;;;;;;;7.63;5.40;;;20.40;96.90;;;;;;5072997;28;20456;-56
2023/09/29 04:46:30;;;;;;;7.47;5.10;;;20.40;97.10;;;;;;5072970;28;20480;-57
2023/09/29 04:48:58;;;;;;;9.33;5.10;;;20.40;97.20;;;;;;5072978;28;20441;-57
2023/09/29 04:51:26;;;;;;;6.80;5.40;;;20.40;97.30;;;;;;5072949;28;20452;-57
2023/09/29 04:53:53;;;;;;;5.17;4.67;;;20.30;97.20;;;;;;5072718;28;20452;-57
2023/09/29 04:56:19;;;;;;;5.50;3.93;;;20.30;97.40;;;;;;5072678;28;20942;-57
2023/09/29 04:58:46;;;;;;;5.90;4.97;;;20.30;97.30;;;;;;5072840;28;20445;-57
2023/09/29 05:01:17;;;;;;;7.57;5.73;;;20.30;97.30;;;;;;5072768;28;20452;-56
2023/09/29 05:03:44;;;;;;;5.30;4.70;;;20.30;97.40;;;;;;5073447;28;20421;-57
2023/09/29 05:06:10;;;;;;;8.97;5.23;;;20.30;97.40;;;;;;5072765;28;20494;-57
2023/09/29 05:08:39;;;;;;;10.23;5.10;;;20.30;97.50;;;;;;5073584;28;20440;-57
2023/09/29 05:11:06;;;;;;;6.70;5.63;;;20.30;97.60;;;;;;5076381;28;20909;-56
2023/09/29 05:13:33;;;;;;;9.30;5.17;;;20.30;97.70;;;;;;5076395;28;20475;-56
2023/09/29 05:15:59;;;;;;;5.23;4.73;;;20.30;97.80;;;;;;5076521;28;20440;-57
2023/09/29 05:18:27;;;;;;;4.90;3.60;;;20.20;97.80;;;;;;5076117;28;20938;-57
2023/09/29 05:20:53;;;;;;;4.27;3.87;;;20.30;97.90;;;;;;5076119;28;20994;-57
2023/09/29 05:23:20;;;;;;;4.30;3.90;;;20.30;97.90;;;;;;5076053;28;21004;-57
2023/09/29 05:25:49;;;;;;;5.30;3.70;;;20.20;97.80;;;;;;5075867;28;20844;-56
2023/09/29 05:28:15;;;;;;;4.57;3.83;;;20.20;97.90;;;;;;5076209;28;20445;-57
2023/09/29 05:30:54;;;;;;;4.33;3.93;;;20.20;98.00;;;;;;5075709;28;20467;-57
2023/09/29 05:33:20;;;;;;;5.27;4.00;;;20.20;98.00;;;;;;5075805;28;20937;-57
2023/09/29 05:35:47;;;;;;;4.90;3.30;;;20.30;98.10;;;;;;5075699;28;20497;-56
2023/09/29 05:38:14;;;;;;;4.37;3.97;;;20.20;98.10;;;;;;5075951;28;20448;-57
2023/09/29 05:40:40;;;;;;;4.40;3.40;;;20.20;98.00;;;;;;5075975;28;20461;-57
2023/09/29 05:43:10;;;;;;;8.43;5.13;;;20.30;98.10;;;;;;5075858;28;20784;-57
2023/09/29 05:45:36;;;;;;;5.67;4.40;;;20.30;98.20;;;;;;5075496;28;20974;-57
2023/09/29 05:48:04;;;;;;;6.90;4.77;;;20.30;98.30;;;;;;5075905;28;20441;-57
2023/09/29 05:50:30;;;;;;;6.70;4.33;;;20.30;98.20;;;;;;5075494;28;21009;-57
2023/09/29 05:52:57;;;;;;;10.30;4.80;;;20.30;98.20;;;;;;5075728;28;20799;-57
2023/09/29 05:55:24;;;;;;;8.03;5.60;;;20.20;98.10;;;;;;5075405;28;20504;-57
2023/09/29 05:57:51;;;;;;;7.80;4.60;;;20.20;98.20;;;;;;5075732;28;20445;-57
2023/09/29 06:00:20;;;;;;;7.30;4.80;;;20.20;98.10;;;;;;5075503;28;20468;-57
2023/09/29 06:02:47;;;;;;;5.50;4.13;;;20.20;98.10;;;;;;5076465;28;20464;-57
2023/09/29 06:05:14;;;;;;;8.40;4.17;;;20.30;98.10;;;;;;5075560;28;20506;-57
2023/09/29 06:07:41;;;;;;;8.03;3.70;;;20.30;98.10;;;;;;5075498;28;20484;-57
2023/09/29 06:10:09;;;;;;;5.23;3.90;;;20.30;98.10;;;;;;5075452;28;20487;-57
2023/09/29 06:12:35;;;;;;;3.40;3.10;;;20.30;98.00;;;;;;5075531;28;20447;-57
2023/09/29 06:15:03;;;;;;;3.17;2.70;;;20.30;98.00;;;;;;5075384;28;20448;-57
2023/09/29 06:17:31;;;;;;;7.33;3.10;;;20.40;98.00;;;;;;5075290;28;20445;-57
2023/09/29 06:19:59;;;;;;;6.87;2.67;;;20.30;98.00;;;;;;5075152;28;20460;-57
2023/09/29 06:22:26;;;;;;;3.30;2.97;;;20.40;98.10;;;;;;5074861;28;20532;-57
2023/09/29 06:24:52;;;;;;;6.10;3.10;;;20.40;98.00;;;;;;5074906;28;20468;-57
2023/09/29 06:27:19;;;;;;;7.17;2.70;;;20.40;98.00;;;;;;5075021;28;20888;-57
2023/09/29 06:29:49;;;;;;;4.47;3.07;;;20.40;98.10;;;;;;5074982;28;20467;-57
2023/09/29 06:32:16;;;;;;;5.23;3.50;;;20.50;98.10;;;;;;5074992;28;20436;-57
2023/09/29 06:34:44;;;;;;;15.83;3.53;;;20.50;98.00;;;;;;5074949;28;20451;-57
2023/09/29 06:37:11;;;;;;;4.73;2.67;;;20.50;98.00;;;;;;5074918;28;20452;-57
2023/09/29 06:39:38;;;;;;;4.10;2.53;;;20.50;98.00;;;;;;5074759;28;20471;-57
2023/09/29 06:42:05;;;;;;;4.37;2.60;;;20.50;98.00;;;;;;5074819;28;20539;-57
2023/09/29 06:44:32;;;;;;;3.03;2.30;;;20.50;97.90;;;;;;5074340;28;20445;-57
2023/09/29 06:46:59;;;;;;;2.73;2.43;;;20.60;97.80;;;;;;5074643;28;20522;-57
2023/09/29 06:49:26;;;;;;;3.73;2.57;;;20.60;97.50;;;;;;5074304;28;20460;-57
2023/09/29 06:51:54;;;;;;;5.10;2.73;;;20.60;97.50;;;;;;5074240;28;20953;-57
2023/09/29 06:54:21;;;;;;;4.60;2.57;;;20.70;97.50;;;;;;5074252;28;20448;-57
2023/09/29 06:56:47;;;;;;;7.30;2.93;;;20.80;97.40;;;;;;5074238;28;20966;-58
2023/09/29 06:59:14;;;;;;;9.33;2.67;;;20.90;97.20;;;;;;5074087;28;20970;-58
2023/09/29 07:01:41;;;;;;;3.33;2.50;;;20.90;97.10;;;;;;5074308;28;20445;-57
2023/09/29 07:04:07;;;;;;;9.23;2.30;;;21.00;97.00;;;;;;5074328;28;20490;-58
2023/09/29 07:06:34;;;;;;;4.70;3.00;;;21.10;96.70;;;;;;5074312;28;20476;-57
2023/09/29 07:09:03;;;;;;;3.60;2.70;;;21.10;96.40;;;;;;5074107;28;20444;-57
2023/09/29 07:11:30;;;;;;;5.20;2.10;;;21.20;96.40;;;;;;5074175;28;20456;-58
2023/09/29 07:13:57;;;;;;;2.93;2.33;;;21.20;96.40;;;;;;5074032;28;20535;-57
2023/09/29 07:16:24;;;;;;;3.00;2.70;;;21.20;96.40;;;;;;5073862;28;20961;-58
2023/09/29 07:18:51;;;;;;;2.90;2.60;;;21.20;96.40;;;;;;5074002;28;20445;-58
2023/09/29 07:21:19;;;;;;;3.20;2.30;;;21.30;96.30;;;;;;5074083;28;20440;-57
2023/09/29 07:23:46;;;;;;;3.90;2.83;;;21.40;96.10;;;;;;5073877;28;20835;-58
2023/09/29 07:26:13;;;;;;;4.00;2.90;;;21.50;95.80;;;;;;5073850;28;20433;-58
2023/09/29 07:28:40;;;;;;;3.43;2.40;;;21.60;95.80;;;;;;5074732;28;20445;-58
2023/09/29 07:31:07;;;;;;;3.53;2.20;;;21.70;95.20;;;;;;5073369;28;20465;-57
2023/09/29 07:33:34;;;;;;;4.03;2.17;;;21.70;95.20;;;;;;5073810;28;20447;-57
2023/09/29 07:36:00;;;;;;;2.83;2.00;;;21.80;95.10;;;;;;5073862;28;20441;-58
2023/09/29 07:38:27;;;;;;;6.50;3.07;;;21.80;94.90;;;;;;5073739;28;20453;-58
2023/09/29 07:40:54;;;;;;;3.27;2.40;;;21.90;94.80;;;;;;5073588;28;20896;-58
2023/09/29 07:43:22;;;;;;;5.80;2.93;;;21.90;94.80;;;;;;5073211;28;20942;-57
2023/09/29 07:45:48;;;;;;;3.20;2.40;;;22.00;94.70;;;;;;5073619;28;20441;-57
2023/09/29 07:48:16;;;;;;;4.23;2.40;;;22.00;94.50;;;;;;5073602;28;20488;-58
2023/09/29 07:50:42;;;;;;;2.67;2.47;;;22.10;94.20;;;;;;5073567;28;20465;-57
2023/09/29 07:53:11;;;;;;;5.43;2.40;;;22.10;93.90;;;;;;5073795;28;20440;-57
2023/09/29 07:55:37;;;;;;;2.43;2.20;;;22.30;94.00;;;;;;5073682;28;20538;-57
2023/09/29 07:58:04;;;;;;;4.03;2.50;;;22.30;93.80;;;;;;5073520;28;20433;-58
2023/09/29 08:00:32;;;;;;;2.83;2.50;;;22.40;93.90;;;;;;5073413;28;20461;-57
2023/09/29 08:02:59;;;;;;;3.97;2.47;;;22.40;93.70;;;;;;5073263;28;20934;-57
2023/09/29 08:05:26;;;;;;;5.87;2.93;;;22.40;93.40;;;;;;5073464;28;20444;-58
2023/09/29 08:07:53;;;;;;;4.13;2.40;;;22.50;93.20;;;;;;5073362;28;20485;-58
2023/09/29 08:10:19;;;;;;;5.30;2.80;;;22.50;93.10;;;;;;5072942;28;20471;-57
2023/09/29 08:12:46;;;;;;;3.03;2.10;;;22.50;93.20;;;;;;5072889;28;20930;-57
2023/09/29 08:15:13;;;;;;;4.43;2.90;;;22.60;92.90;;;;;;5073363;28;20444;-58
2023/09/29 08:17:43;;;;;;;3.83;2.97;;;22.60;92.90;;;;;;5073399;28;20437;-58
2023/09/29 08:20:11;;;;;;;2.27;1.90;;;22.60;92.50;;;;;;5073803;28;20461;-57
2023/09/29 08:22:38;;;;;;;2.43;2.23;;;22.70;92.90;;;;;;5072855;28;20946;-57
2023/09/29 08:25:07;;;;;;;3.00;2.13;;;22.80;92.80;;;;;;5072838;28;20950;-57
2023/09/29 08:27:34;;;;;;;3.10;2.10;;;22.70;92.80;;;;;;5072860;28;20480;-57
2023/09/29 08:30:01;;;;;;;6.20;2.87;;;22.80;92.80;;;;;;5073202;28;20467;-57
2023/09/29 08:32:28;;;;;;;3.43;1.73;;;22.90;92.80;;;;;;5072798;28;20436;-57
2023/09/29 08:34:56;;;;;;;4.10;2.40;;;23.00;92.40;;;;;;5072989;28;20465;-57
2023/09/29 08:37:23;;;;;;;3.13;2.83;;;23.00;92.30;;;;;;5073082;28;20450;-58
2023/09/29 08:39:50;;;;;;;5.77;2.90;;;23.10;92.10;;;;;;5073009;28;20464;-57
2023/09/29 08:42:26;;;;;;;6.80;2.47;;;23.20;92.10;;;;;;5072974;28;20483;-57
2023/09/29 08:44:55;;;;;;;5.10;2.63;;;23.20;92.00;;;;;;5075815;28;20427;-57
2023/09/29 08:47:28;;;;;;;4.63;2.70;;;23.30;92.00;;;;;;5076944;28;20492;-57
2023/09/29 08:49:57;;;;;;;3.60;2.63;;;23.50;92.10;;;;;;5076948;28;20468;-58
2023/09/29 08:52:27;;;;;;;6.13;2.83;;;23.60;91.50;;;;;;5076912;28;20441;-58
2023/09/29 08:54:55;;;;;;;5.90;3.40;;;23.80;90.90;;;;;;5076493;28;20939;-58
2023/09/29 08:57:23;;;;;;;8.57;3.33;;;23.90;90.10;;;;;;5076807;28;20440;-58
2023/09/29 08:59:52;;;;;;;6.70;2.80;;;24.10;90.30;;;;;;5076728;28;20481;-58
2023/09/29 09:02:19;;;;;;;4.40;2.20;;;24.10;88.30;;;;;;5076630;28;20440;-57
2023/09/29 09:04:45;;;;;;;4.00;2.53;;;24.20;88.00;;;;;;5076671;28;20445;-58
2023/09/29 09:07:14;;;;;;;3.23;2.70;;;24.20;88.50;;;;;;5076172;28;20487;-58
2023/09/29 09:09:46;;;;;;;4.80;2.73;;;24.10;88.40;;;;;;5076208;28;20973;-58
2023/09/29 09:12:13;;;;;;;6.13;2.87;;;24.00;89.40;;;;;;5076472;28;20425;-57
2023/09/29 09:14:41;;;;;;;5.90;3.07;;;23.70;88.90;;;;;;5076447;28;20444;-57
2023/09/29 09:17:08;;;;;;;5.27;2.47;;;23.70;90.20;;;;;;5076394;28;20444;-57
2023/09/29 09:19:42;;;;;;;7.93;2.73;;;23.70;90.20;;;;;;5076406;28;20492;-58
2023/09/29 09:22:16;;;;;;;5.30;2.57;;;23.50;89.00;;;;;;5075985;28;20475;-57
2023/09/29 09:24:43;;;;;;;10.00;2.90;;;23.50;89.60;;;;;;5076014;28;20457;-58
2023/09/29 09:27:10;;;;;;;8.33;3.00;;;23.40;89.80;;;;;;5076219;28;20487;-57
2023/09/29 09:29:41;;;;;;;3.10;2.37;;;23.40;88.90;;;;;;5076137;28;20471;-58
2023/09/29 09:32:10;;;;;;;15.97;3.53;;;23.40;88.40;;;;;;5076171;28;20507;-57
2023/09/29 09:34:39;;;;;;;11.97;3.30;;;23.50;87.20;;;;;;5076173;28;20445;-57
2023/09/29 09:37:06;;;;;;;10.90;2.70;;;23.50;86.00;;;;;;5076095;28;20448;-57
2023/09/29 09:39:35;;;;;;;9.40;3.40;;;23.40;86.50;;;;;;5076056;28;20871;-57
2023/09/29 09:42:05;;;;;;;8.60;3.60;;;23.40;85.70;;;;;;5075633;28;20449;-57
2023/09/29 09:44:34;;;;;;;15.70;3.70;;;23.50;87.60;;;;;;5075757;28;20530;-57
2023/09/29 09:47:01;;;;;;;9.33;3.27;;;23.70;86.40;;;;;;5075818;28;20498;-57
2023/09/29 09:49:36;;;;;;;9.87;2.70;;;23.90;86.90;;;;;;5075782;28;20556;-57
2023/09/29 09:52:08;;;;;;;8.80;3.30;;;24.10;83.80;;;;;;5075897;28;20467;-58
2023/09/29 09:54:44;;;;;;;10.00;3.80;;;24.20;83.10;;;;;;5075382;28;20504;-58
2023/09/29 09:57:13;;;;;;;7.20;3.30;;;24.30;82.40;;;;;;5075731;28;20487;-58
2023/09/29 09:59:42;;;;;;;9.60;3.67;;;24.60;82.10;;;;;;5075269;28;20831;-58
2023/09/29 10:02:11;;;;;;;9.40;3.40;;;24.60;80.00;;;;;;5075547;28;20440;-58
2023/09/29 10:04:39;;;;;;;10.67;4.23;;;24.70;81.30;;;;;;5075546;28;20528;-58
2023/09/29 10:07:07;;;;;;;13.03;4.00;;;24.80;80.20;;;;;;5075434;28;20441;-57
2023/09/29 10:09:48;;;;;;;9.83;4.50;;;24.70;78.30;;;;;;5075109;28;20464;-57
2023/09/29 10:12:25;;;;;;;9.40;4.30;;;24.60;79.40;;;;;;5075421;28;20426;-57
2023/09/29 10:14:53;;;;;;;6.77;3.73;;;24.50;79.70;;;;;;5075292;28;20470;-58
2023/09/29 10:17:21;;;;;;;9.80;4.23;;;24.50;79.60;;;;;;5075350;28;20465;-58
2023/09/29 10:19:50;;;;;;;11.10;4.30;;;24.40;80.60;;;;;;5075275;28;20896;-58
2023/09/29 10:22:24;;;;;;;9.03;3.90;;;24.40;80.00;;;;;;5074923;28;20938;-57
2023/09/29 10:24:56;;;;;;;10.60;4.30;;;24.40;80.30;;;;;;5074832;28;20474;-57
2023/09/29 10:27:33;;;;;;;8.47;3.93;;;24.50;79.50;;;;;;5074825;28;20468;-57
2023/09/29 10:30:15;;;;;;;8.80;4.37;;;24.60;79.10;;;;;;5074758;28;20966;-57
2023/09/29 10:32:43;;;;;;;7.57;3.80;;;24.70;78.50;;;;;;5075020;28;20429;-57
2023/09/29 10:35:18;;;;;;;8.07;3.97;;;24.80;78.40;;;;;;5074945;28;20445;-57
2023/09/29 10:37:47;;;;;;;12.97;5.30;;;24.90;77.90;;;;;;5074981;28;20421;-57
2023/09/29 10:40:22;;;;;;;11.23;5.07;;;25.10;76.40;;;;;;5074774;28;20504;-57
2023/09/29 10:42:54;;;;;;;9.60;4.80;;;25.30;76.30;;;;;;5074655;28;20424;-57
2023/09/29 10:45:28;;;;;;;9.33;4.90;;;25.60;75.60;;;;;;5074819;28;20429;-58
2023/09/29 10:48:00;;;;;;;11.83;5.30;;;25.70;74.60;;;;;;5074410;28;20480;-58
2023/09/29 10:50:28;;;;;;;12.10;5.70;;;25.70;73.50;;;;;;5074615;28;20460;-58
2023/09/29 10:52:55;;;;;;;10.60;5.30;;;25.80;73.00;;;;;;5074573;28;20444;-57
2023/09/29 10:55:23;;;;;;;12.83;4.77;;;25.70;72.70;;;;;;5074510;28;20456;-58
2023/09/29 10:57:51;;;;;;;12.13;5.37;;;25.60;72.50;;;;;;5074528;28;20436;-58
2023/09/29 11:00:19;;;;;;;11.40;5.57;;;25.70;73.60;;;;;;5074350;28;20456;-57
2023/09/29 11:02:48;;;;;;;11.23;6.30;;;26.00;72.80;;;;;;5074413;28;20445;-58
2023/09/29 11:05:15;;;;;;;10.70;5.10;;;26.00;71.40;;;;;;5074365;28;20816;-58
2023/09/29 11:07:50;;;;;;;10.20;5.03;;;25.80;71.30;;;;;;5073563;28;20567;-57
2023/09/29 11:10:18;;;;;;;9.23;4.73;;;25.90;70.80;;;;;;5074222;28;20993;-58
2023/09/29 11:12:47;;;;;;;10.80;5.27;;;26.20;69.60;;;;;;5074423;28;20514;-58
2023/09/29 11:15:15;;;;;;;12.03;5.40;;;26.60;68.60;;;;;;5074274;28;20543;-58
2023/09/29 11:17:45;;;;;;;9.73;5.27;;;27.20;67.00;;;;;;5073990;28;20964;-58
2023/09/29 11:20:16;;;;;;;9.67;4.90;;;27.80;63.60;;;;;;5074083;28;20476;-58
2023/09/29 11:22:45;;;;;;;9.50;5.33;;;28.50;63.00;;;;;;5074064;28;20478;-58
2023/09/29 11:25:21;;;;;;;10.43;5.23;;;29.10;59.30;;;;;;5073689;28;20950;-58
2023/09/29 11:27:52;;;;;;;10.63;5.57;;;28.70;57.50;;;;;;5073683;28;20841;-58
2023/09/29 11:30:24;;;;;;;12.13;5.93;;;28.60;58.90;;;;;;5073956;28;20483;-58
2023/09/29 11:32:50;;;;;;;13.63;4.93;;;28.40;58.70;;;;;;5073907;28;20436;-57
2023/09/29 11:35:18;;;;;;;8.53;4.60;;;28.20;59.40;;;;;;5073951;28;20836;-57
2023/09/29 11:37:46;;;;;;;9.53;5.37;;;28.30;59.80;;;;;;5073779;28;20445;-58
2023/09/29 11:40:13;;;;;;;12.47;5.23;;;29.00;58.00;;;;;;5074546;28;20529;-58
2023/09/29 11:42:41;;;;;;;12.20;5.50;;;29.60;54.70;;;;;;5073658;28;20819;-58
2023/09/29 11:45:10;;;;;;;11.23;5.20;;;30.40;53.20;;;;;;5073367;28;20942;-57
2023/09/29 11:47:39;;;;;;;9.53;4.83;;;30.80;51.60;;;;;;5073576;28;20850;-58
2023/09/29 11:50:08;;;;;;;13.43;5.00;;;30.10;51.60;;;;;;5073557;28;20472;-58
2023/09/29 11:52:35;;;;;;;8.37;4.50;;;29.20;52.70;;;;;;5073509;28;20510;-57
2023/09/29 11:55:03;;;;;;;8.60;4.53;;;28.50;55.00;;;;;;5073537;28;20539;-58
2023/09/29 11:57:30;;;;;;;6.93;4.20;;;28.10;57.40;;;;;;5073498;28;20813;-58
2023/09/29 11:59:57;;;;;;;8.73;4.77;;;28.00;57.30;;;;;;5073326;28;20818;-57
2023/09/29 12:02:25;;;;;;;7.67;4.50;;;27.50;58.90;;;;;;5073482;28;20514;-57
2023/09/29 12:04:52;;;;;;;9.80;5.00;;;27.00;60.40;;;;;;5073468;28;20449;-57
2023/09/29 12:07:18;;;;;;;11.53;4.53;;;26.60;62.90;;;;;;5073413;28;20476;-57
2023/09/29 12:09:45;;;;;;;9.67;4.93;;;26.30;65.00;;;;;;5073183;28;20484;-57
2023/09/29 12:12:12;;;;;;;11.80;4.60;;;25.90;66.40;;;;;;5074242;28;20448;-57
2023/09/29 12:14:39;;;;;;;11.97;5.20;;;25.40;67.90;;;;;;5072918;28;20946;-57
2023/09/29 12:17:06;;;;;;;11.20;4.27;;;25.10;70.60;;;;;;5073309;28;20449;-57
2023/09/29 12:19:34;;;;;;;9.57;4.73;;;24.90;72.20;;;;;;5073141;28;20504;-57
2023/09/29 12:22:01;;;;;;;9.10;4.50;;;24.70;75.20;;;;;;5073265;28;20474;-57
2023/09/29 12:24:28;;;;;;;9.67;4.97;;;24.50;76.00;;;;;;5072910;28;20452;-58
2023/09/29 12:26:54;;;;;;;14.03;4.70;;;24.40;78.50;;;;;;5073273;28;20818;-57
2023/09/29 12:29:21;;;;;;;11.37;3.93;;;24.40;80.80;;;;;;5073034;28;20586;-57
2023/09/29 12:31:49;;;;;;;9.00;4.00;;;24.30;81.30;;;;;;5073242;28;20888;-57
2023/09/29 12:34:17;;;;;;;11.13;4.20;;;24.10;82.20;;;;;;5073150;28;20476;-57
2023/09/29 12:36:45;;;;;;;6.90;3.87;;;23.90;84.50;;;;;;5073106;28;20502;-57
2023/09/29 12:39:12;;;;;;;9.70;4.03;;;23.70;86.20;;;;;;5073045;28;20471;-57
2023/09/29 12:41:40;;;;;;;7.07;4.10;;;23.60;88.60;;;;;;5073109;28;20476;-57
2023/09/29 12:44:07;;;;;;;12.30;4.03;;;23.60;89.10;;;;;;5072981;28;20444;-57
2023/09/29 12:46:35;;;;;;;5.27;3.53;;;23.60;89.70;;;;;;5072663;28;20961;-57
2023/09/29 12:49:03;;;;;;;7.60;3.50;;;23.50;90.00;;;;;;5072594;28;20994;-56